sensor_id;sensor_type;location;lat;lon;timestamp;temperature;humidity
51801;DHT22;37855;53.204;6.568;2024-02-26T00:02:23;3.60;86.30
51801;DHT22;37855;53.204;6.568;2024-02-26T00:04:49;3.50;86.50
51801;DHT22;37855;53.204;6.568;2024-02-26T00:07:16;3.50;86.80
51801;DHT22;37855;53.204;6.568;2024-02-26T00:09:42;3.60;86.70
51801;DHT22;37855;53.204;6.568;2024-02-26T00:12:08;3.60;86.30
51801;DHT22;37855;53.204;6.568;2024-02-26T00:14:33;3.60;86.30
51801;DHT22;37855;53.204;6.568;2024-02-26T00:16:59;3.60;86.60
51801;DHT22;37855;53.204;6.568;2024-02-26T00:19:25;3.60;86.60
51801;DHT22;37855;53.204;6.568;2024-02-26T00:21:51;3.60;86.20
51801;DHT22;37855;53.204;6.568;2024-02-26T00:24:19;3.70;86.00
51801;DHT22;37855;53.204;6.568;2024-02-26T00:26:45;3.60;86.20
51801;DHT22;37855;53.204;6.568;2024-02-26T00:29:10;3.60;86.10
51801;DHT22;37855;53.204;6.568;2024-02-26T00:31:36;3.60;86.10
51801;DHT22;37855;53.204;6.568;2024-02-26T00:34:02;3.60;86.20
51801;DHT22;37855;53.204;6.568;2024-02-26T00:36:28;3.60;86.10
51801;DHT22;37855;53.204;6.568;2024-02-26T00:38:53;3.60;85.90
51801;DHT22;37855;53.204;6.568;2024-02-26T00:41:21;3.60;85.80
51801;DHT22;37855;53.204;6.568;2024-02-26T00:43:46;3.60;85.80
51801;DHT22;37855;53.204;6.568;2024-02-26T00:46:12;3.50;86.00
51801;DHT22;37855;53.204;6.568;2024-02-26T00:48:38;3.60;86.00
51801;DHT22;37855;53.204;6.568;2024-02-26T00:51:04;3.60;86.00
51801;DHT22;37855;53.204;6.568;2024-02-26T00:53:33;3.70;85.70
51801;DHT22;37855;53.204;6.568;2024-02-26T00:55:59;3.70;85.50
51801;DHT22;37855;53.204;6.568;2024-02-26T00:58:25;3.70;85.20
51801;DHT22;37855;53.204;6.568;2024-02-26T01:00:51;3.60;85.30
51801;DHT22;37855;53.204;6.568;2024-02-26T01:03:19;3.60;85.40
51801;DHT22;37855;53.204;6.568;2024-02-26T01:05:45;3.70;85.20
51801;DHT22;37855;53.204;6.568;2024-02-26T01:08:11;3.60;85.00
51801;DHT22;37855;53.204;6.568;2024-02-26T01:10:37;3.60;85.20
51801;DHT22;37855;53.204;6.568;2024-02-26T01:13:02;3.60;85.10
51801;DHT22;37855;53.204;6.568;2024-02-26T01:15:28;3.60;85.20
51801;DHT22;37855;53.204;6.568;2024-02-26T01:17:53;3.70;84.80
51801;DHT22;37855;53.204;6.568;2024-02-26T01:20:19;3.70;84.50
51801;DHT22;37855;53.204;6.568;2024-02-26T01:22:45;3.60;84.70
51801;DHT22;37855;53.204;6.568;2024-02-26T01:25:11;3.70;84.60
51801;DHT22;37855;53.204;6.568;2024-02-26T01:27:37;3.60;84.50
51801;DHT22;37855;53.204;6.568;2024-02-26T01:30:04;3.60;84.40
51801;DHT22;37855;53.204;6.568;2024-02-26T01:32:30;3.60;84.40
51801;DHT22;37855;53.204;6.568;2024-02-26T01:34:56;3.50;84.50
51801;DHT22;37855;53.204;6.568;2024-02-26T01:37:22;3.50;84.80
51801;DHT22;37855;53.204;6.568;2024-02-26T01:39:50;3.60;84.90
51801;DHT22;37855;53.204;6.568;2024-02-26T01:42:17;3.50;84.50
51801;DHT22;37855;53.204;6.568;2024-02-26T01:44:43;3.60;84.50
51801;DHT22;37855;53.204;6.568;2024-02-26T01:47:11;3.60;83.90
51801;DHT22;37855;53.204;6.568;2024-02-26T01:49:37;3.50;83.90
51801;DHT22;37855;53.204;6.568;2024-02-26T01:52:05;3.60;84.20
51801;DHT22;37855;53.204;6.568;2024-02-26T01:54:31;3.50;84.10
51801;DHT22;37855;53.204;6.568;2024-02-26T01:57:02;3.50;84.40
51801;DHT22;37855;53.204;6.568;2024-02-26T01:59:28;3.60;84.10
51801;DHT22;37855;53.204;6.568;2024-02-26T02:01:56;3.50;84.20
51801;DHT22;37855;53.204;6.568;2024-02-26T02:04:25;3.60;84.10
51801;DHT22;37855;53.204;6.568;2024-02-26T02:06:52;3.60;84.10
51801;DHT22;37855;53.204;6.568;2024-02-26T02:09:21;3.60;84.00
51801;DHT22;37855;53.204;6.568;2024-02-26T02:11:48;3.60;84.00
51801;DHT22;37855;53.204;6.568;2024-02-26T02:14:17;3.60;83.90
51801;DHT22;37855;53.204;6.568;2024-02-26T02:16:42;3.50;84.20
51801;DHT22;37855;53.204;6.568;2024-02-26T02:19:08;3.50;84.20
51801;DHT22;37855;53.204;6.568;2024-02-26T02:21:34;3.50;84.30
51801;DHT22;37855;53.204;6.568;2024-02-26T02:23:59;3.50;84.30
51801;DHT22;37855;53.204;6.568;2024-02-26T02:26:25;3.50;84.40
51801;DHT22;37855;53.204;6.568;2024-02-26T02:28:50;3.50;84.40
51801;DHT22;37855;53.204;6.568;2024-02-26T02:31:16;3.50;84.40
51801;DHT22;37855;53.204;6.568;2024-02-26T02:33:45;3.40;84.60
51801;DHT22;37855;53.204;6.568;2024-02-26T02:36:11;3.40;84.80
51801;DHT22;37855;53.204;6.568;2024-02-26T02:38:37;3.40;84.70
51801;DHT22;37855;53.204;6.568;2024-02-26T02:41:03;3.30;84.90
51801;DHT22;37855;53.204;6.568;2024-02-26T02:43:29;3.40;84.90
51801;DHT22;37855;53.204;6.568;2024-02-26T02:45:54;3.40;84.90
51801;DHT22;37855;53.204;6.568;2024-02-26T02:48:23;3.40;84.80
51801;DHT22;37855;53.204;6.568;2024-02-26T02:50:48;3.40;84.60
51801;DHT22;37855;53.204;6.568;2024-02-26T02:53:16;3.40;84.60
51801;DHT22;37855;53.204;6.568;2024-02-26T02:55:41;3.50;84.30
51801;DHT22;37855;53.204;6.568;2024-02-26T02:58:07;3.40;84.20
51801;DHT22;37855;53.204;6.568;2024-02-26T03:00:33;3.30;84.60
51801;DHT22;37855;53.204;6.568;2024-02-26T03:02:58;3.40;84.50
51801;DHT22;37855;53.204;6.568;2024-02-26T03:05:24;3.40;84.20
51801;DHT22;37855;53.204;6.568;2024-02-26T03:07:51;3.40;84.40
51801;DHT22;37855;53.204;6.568;2024-02-26T03:10:18;3.30;84.60
51801;DHT22;37855;53.204;6.568;2024-02-26T03:12:43;3.30;84.80
51801;DHT22;37855;53.204;6.568;2024-02-26T03:15:09;3.40;84.10
51801;DHT22;37855;53.204;6.568;2024-02-26T03:17:36;3.40;84.20
51801;DHT22;37855;53.204;6.568;2024-02-26T03:20:04;3.40;84.40
51801;DHT22;37855;53.204;6.568;2024-02-26T03:22:30;3.30;84.40
51801;DHT22;37855;53.204;6.568;2024-02-26T03:24:56;3.40;84.30
51801;DHT22;37855;53.204;6.568;2024-02-26T03:27:22;3.30;84.50
51801;DHT22;37855;53.204;6.568;2024-02-26T03:29:48;3.30;84.50
51801;DHT22;37855;53.204;6.568;2024-02-26T03:32:14;3.30;84.80
51801;DHT22;37855;53.204;6.568;2024-02-26T03:34:40;3.30;84.60
51801;DHT22;37855;53.204;6.568;2024-02-26T03:37:06;3.30;84.60
51801;DHT22;37855;53.204;6.568;2024-02-26T03:39:33;3.30;84.60
51801;DHT22;37855;53.204;6.568;2024-02-26T03:41:58;3.20;84.90
51801;DHT22;37855;53.204;6.568;2024-02-26T03:44:24;3.20;84.80
51801;DHT22;37855;53.204;6.568;2024-02-26T03:46:50;3.20;84.80
51801;DHT22;37855;53.204;6.568;2024-02-26T03:49:16;3.20;85.10
51801;DHT22;37855;53.204;6.568;2024-02-26T03:51:42;3.30;85.10
51801;DHT22;37855;53.204;6.568;2024-02-26T03:54:07;3.40;84.70
51801;DHT22;37855;53.204;6.568;2024-02-26T03:56:36;3.30;84.80
51801;DHT22;37855;53.204;6.568;2024-02-26T03:59:01;3.30;84.60
51801;DHT22;37855;53.204;6.568;2024-02-26T04:01:28;3.30;84.70
51801;DHT22;37855;53.204;6.568;2024-02-26T04:03:56;3.20;84.70
51801;DHT22;37855;53.204;6.568;2024-02-26T04:06:22;3.30;84.80
51801;DHT22;37855;53.204;6.568;2024-02-26T04:08:48;3.20;84.70
51801;DHT22;37855;53.204;6.568;2024-02-26T04:11:14;3.20;84.90
51801;DHT22;37855;53.204;6.568;2024-02-26T04:13:46;3.20;84.80
51801;DHT22;37855;53.204;6.568;2024-02-26T04:16:15;3.30;84.90
51801;DHT22;37855;53.204;6.568;2024-02-26T04:18:41;3.30;84.70
51801;DHT22;37855;53.204;6.568;2024-02-26T04:21:07;3.30;84.50
51801;DHT22;37855;53.204;6.568;2024-02-26T04:23:33;3.30;84.40
51801;DHT22;37855;53.204;6.568;2024-02-26T04:25:58;3.40;84.20
51801;DHT22;37855;53.204;6.568;2024-02-26T04:28:24;3.40;84.20
51801;DHT22;37855;53.204;6.568;2024-02-26T04:30:55;3.40;84.20
51801;DHT22;37855;53.204;6.568;2024-02-26T04:33:22;3.40;83.80
51801;DHT22;37855;53.204;6.568;2024-02-26T04:35:47;3.40;84.10
51801;DHT22;37855;53.204;6.568;2024-02-26T04:38:13;3.50;83.80
51801;DHT22;37855;53.204;6.568;2024-02-26T04:40:39;3.60;83.40
51801;DHT22;37855;53.204;6.568;2024-02-26T04:43:04;3.60;83.20
51801;DHT22;37855;53.204;6.568;2024-02-26T04:45:30;3.60;83.10
51801;DHT22;37855;53.204;6.568;2024-02-26T04:47:55;3.50;83.30
51801;DHT22;37855;53.204;6.568;2024-02-26T04:50:21;3.50;83.30
51801;DHT22;37855;53.204;6.568;2024-02-26T04:52:46;3.50;83.40
51801;DHT22;37855;53.204;6.568;2024-02-26T04:55:12;3.40;83.50
51801;DHT22;37855;53.204;6.568;2024-02-26T04:57:38;3.50;83.70
51801;DHT22;37855;53.204;6.568;2024-02-26T05:00:05;3.50;83.70
51801;DHT22;37855;53.204;6.568;2024-02-26T05:02:30;3.50;83.40
51801;DHT22;37855;53.204;6.568;2024-02-26T05:04:59;3.40;83.70
51801;DHT22;37855;53.204;6.568;2024-02-26T05:07:25;3.40;83.70
51801;DHT22;37855;53.204;6.568;2024-02-26T05:09:51;3.40;83.70
51801;DHT22;37855;53.204;6.568;2024-02-26T05:12:16;3.40;83.90
51801;DHT22;37855;53.204;6.568;2024-02-26T05:14:42;3.40;83.80
51801;DHT22;37855;53.204;6.568;2024-02-26T05:17:08;3.40;83.80
51801;DHT22;37855;53.204;6.568;2024-02-26T05:19:33;3.40;83.80
51801;DHT22;37855;53.204;6.568;2024-02-26T05:21:59;3.40;83.70
51801;DHT22;37855;53.204;6.568;2024-02-26T05:24:25;3.40;83.80
51801;DHT22;37855;53.204;6.568;2024-02-26T05:26:50;3.40;83.60
51801;DHT22;37855;53.204;6.568;2024-02-26T05:29:16;3.40;83.60
51801;DHT22;37855;53.204;6.568;2024-02-26T05:31:43;3.40;83.60
51801;DHT22;37855;53.204;6.568;2024-02-26T05:34:09;3.40;83.70
51801;DHT22;37855;53.204;6.568;2024-02-26T05:36:34;3.40;83.60
51801;DHT22;37855;53.204;6.568;2024-02-26T05:39:01;3.40;83.70
51801;DHT22;37855;53.204;6.568;2024-02-26T05:41:27;3.40;83.30
51801;DHT22;37855;53.204;6.568;2024-02-26T05:43:53;3.40;83.40
51801;DHT22;37855;53.204;6.568;2024-02-26T05:46:19;3.50;83.20
51801;DHT22;37855;53.204;6.568;2024-02-26T05:48:49;3.60;82.70
51801;DHT22;37855;53.204;6.568;2024-02-26T05:51:14;3.50;82.80
51801;DHT22;37855;53.204;6.568;2024-02-26T05:53:43;3.50;82.70
51801;DHT22;37855;53.204;6.568;2024-02-26T05:56:09;3.50;82.90
51801;DHT22;37855;53.204;6.568;2024-02-26T05:58:34;3.60;82.70
51801;DHT22;37855;53.204;6.568;2024-02-26T06:01:01;3.50;82.60
51801;DHT22;37855;53.204;6.568;2024-02-26T06:03:27;3.50;82.60
51801;DHT22;37855;53.204;6.568;2024-02-26T06:05:53;3.60;82.60
51801;DHT22;37855;53.204;6.568;2024-02-26T06:08:18;3.60;82.40
51801;DHT22;37855;53.204;6.568;2024-02-26T06:10:44;3.60;82.10
51801;DHT22;37855;53.204;6.568;2024-02-26T06:13:09;3.60;82.10
51801;DHT22;37855;53.204;6.568;2024-02-26T06:15:35;3.60;82.10
51801;DHT22;37855;53.204;6.568;2024-02-26T06:18:01;3.60;82.10
51801;DHT22;37855;53.204;6.568;2024-02-26T06:20:26;3.60;82.00
51801;DHT22;37855;53.204;6.568;2024-02-26T06:22:52;3.60;82.00
51801;DHT22;37855;53.204;6.568;2024-02-26T06:25:17;3.60;82.00
51801;DHT22;37855;53.204;6.568;2024-02-26T06:27:43;3.60;82.30
51801;DHT22;37855;53.204;6.568;2024-02-26T06:30:09;3.60;82.00
51801;DHT22;37855;53.204;6.568;2024-02-26T06:32:37;3.70;81.60
51801;DHT22;37855;53.204;6.568;2024-02-26T06:35:02;3.70;81.80
51801;DHT22;37855;53.204;6.568;2024-02-26T06:37:32;3.70;81.80
51801;DHT22;37855;53.204;6.568;2024-02-26T06:39:59;3.70;81.80
51801;DHT22;37855;53.204;6.568;2024-02-26T06:42:25;3.70;81.90
51801;DHT22;37855;53.204;6.568;2024-02-26T06:44:50;3.80;81.70
51801;DHT22;37855;53.204;6.568;2024-02-26T06:47:16;3.70;81.60
51801;DHT22;37855;53.204;6.568;2024-02-26T06:49:42;3.80;81.70
51801;DHT22;37855;53.204;6.568;2024-02-26T06:52:17;3.80;81.50
51801;DHT22;37855;53.204;6.568;2024-02-26T06:54:43;3.80;81.60
51801;DHT22;37855;53.204;6.568;2024-02-26T06:57:08;3.80;81.80
51801;DHT22;37855;53.204;6.568;2024-02-26T06:59:34;3.80;81.90
51801;DHT22;37855;53.204;6.568;2024-02-26T07:02:03;3.70;82.00
51801;DHT22;37855;53.204;6.568;2024-02-26T07:04:28;3.70;81.90
51801;DHT22;37855;53.204;6.568;2024-02-26T07:06:54;3.70;82.10
51801;DHT22;37855;53.204;6.568;2024-02-26T07:09:20;3.70;82.10
51801;DHT22;37855;53.204;6.568;2024-02-26T07:11:45;3.70;82.10
51801;DHT22;37855;53.204;6.568;2024-02-26T07:14:12;3.80;81.80
51801;DHT22;37855;53.204;6.568;2024-02-26T07:16:38;3.80;81.80
51801;DHT22;37855;53.204;6.568;2024-02-26T07:19:04;3.80;81.80
51801;DHT22;37855;53.204;6.568;2024-02-26T07:21:29;3.80;81.70
51801;DHT22;37855;53.204;6.568;2024-02-26T07:23:56;3.70;81.70
51801;DHT22;37855;53.204;6.568;2024-02-26T07:26:22;3.70;82.00
51801;DHT22;37855;53.204;6.568;2024-02-26T07:28:49;3.80;81.60
51801;DHT22;37855;53.204;6.568;2024-02-26T07:31:17;3.90;81.60
51801;DHT22;37855;53.204;6.568;2024-02-26T07:33:42;3.90;81.00
51801;DHT22;37855;53.204;6.568;2024-02-26T07:36:08;3.90;80.70
51801;DHT22;37855;53.204;6.568;2024-02-26T07:38:34;4.00;80.70
51801;DHT22;37855;53.204;6.568;2024-02-26T07:41:01;4.00;80.20
51801;DHT22;37855;53.204;6.568;2024-02-26T07:43:26;4.00;80.10
51801;DHT22;37855;53.204;6.568;2024-02-26T07:45:52;4.00;80.00
51801;DHT22;37855;53.204;6.568;2024-02-26T07:48:17;3.90;80.20
51801;DHT22;37855;53.204;6.568;2024-02-26T07:50:43;3.90;80.30
51801;DHT22;37855;53.204;6.568;2024-02-26T07:53:09;3.90;80.20
51801;DHT22;37855;53.204;6.568;2024-02-26T07:55:34;3.90;80.20
51801;DHT22;37855;53.204;6.568;2024-02-26T07:58:00;3.90;80.00
51801;DHT22;37855;53.204;6.568;2024-02-26T08:00:27;3.90;80.30
51801;DHT22;37855;53.204;6.568;2024-02-26T08:02:56;3.90;80.00
51801;DHT22;37855;53.204;6.568;2024-02-26T08:05:24;3.90;80.30
51801;DHT22;37855;53.204;6.568;2024-02-26T08:07:50;4.00;80.20
51801;DHT22;37855;53.204;6.568;2024-02-26T08:10:16;4.00;80.00
51801;DHT22;37855;53.204;6.568;2024-02-26T08:12:42;4.00;80.00
51801;DHT22;37855;53.204;6.568;2024-02-26T08:15:08;4.00;79.60
51801;DHT22;37855;53.204;6.568;2024-02-26T08:17:34;4.10;79.60
51801;DHT22;37855;53.204;6.568;2024-02-26T08:20:00;4.10;79.50
51801;DHT22;37855;53.204;6.568;2024-02-26T08:22:28;4.10;79.40
51801;DHT22;37855;53.204;6.568;2024-02-26T08:24:54;4.10;79.40
51801;DHT22;37855;53.204;6.568;2024-02-26T08:27:19;4.10;79.40
51801;DHT22;37855;53.204;6.568;2024-02-26T08:29:45;4.10;79.40
51801;DHT22;37855;53.204;6.568;2024-02-26T08:32:11;4.10;79.40
51801;DHT22;37855;53.204;6.568;2024-02-26T08:34:36;4.10;79.60
51801;DHT22;37855;53.204;6.568;2024-02-26T08:37:02;4.20;79.40
51801;DHT22;37855;53.204;6.568;2024-02-26T08:39:28;4.20;79.20
51801;DHT22;37855;53.204;6.568;2024-02-26T08:41:53;4.20;79.10
51801;DHT22;37855;53.204;6.568;2024-02-26T08:44:19;4.20;79.10
51801;DHT22;37855;53.204;6.568;2024-02-26T08:46:45;4.20;78.90
51801;DHT22;37855;53.204;6.568;2024-02-26T08:49:11;4.30;78.60
51801;DHT22;37855;53.204;6.568;2024-02-26T08:51:42;4.40;78.40
51801;DHT22;37855;53.204;6.568;2024-02-26T08:54:11;4.30;78.30
51801;DHT22;37855;53.204;6.568;2024-02-26T08:56:37;4.40;78.30
51801;DHT22;37855;53.204;6.568;2024-02-26T08:59:02;4.40;78.30
51801;DHT22;37855;53.204;6.568;2024-02-26T09:01:30;4.40;78.40
51801;DHT22;37855;53.204;6.568;2024-02-26T09:03:56;4.30;78.60
51801;DHT22;37855;53.204;6.568;2024-02-26T09:06:22;4.30;78.50
51801;DHT22;37855;53.204;6.568;2024-02-26T09:08:48;4.40;78.40
51801;DHT22;37855;53.204;6.568;2024-02-26T09:11:13;4.40;78.10
51801;DHT22;37855;53.204;6.568;2024-02-26T09:13:39;4.40;78.20
51801;DHT22;37855;53.204;6.568;2024-02-26T09:16:06;4.40;78.00
51801;DHT22;37855;53.204;6.568;2024-02-26T09:18:31;4.50;78.20
51801;DHT22;37855;53.204;6.568;2024-02-26T09:20:57;4.50;78.10
51801;DHT22;37855;53.204;6.568;2024-02-26T09:23:22;4.50;78.10
51801;DHT22;37855;53.204;6.568;2024-02-26T09:25:48;4.50;77.90
51801;DHT22;37855;53.204;6.568;2024-02-26T09:28:14;4.50;77.90
51801;DHT22;37855;53.204;6.568;2024-02-26T09:30:45;4.60;77.50
51801;DHT22;37855;53.204;6.568;2024-02-26T09:33:14;4.60;77.50
51801;DHT22;37855;53.204;6.568;2024-02-26T09:35:39;4.50;77.60
51801;DHT22;37855;53.204;6.568;2024-02-26T09:38:05;4.60;77.40
51801;DHT22;37855;53.204;6.568;2024-02-26T09:40:31;4.60;77.40
51801;DHT22;37855;53.204;6.568;2024-02-26T09:42:59;4.50;77.70
51801;DHT22;37855;53.204;6.568;2024-02-26T09:45:26;4.60;77.80
51801;DHT22;37855;53.204;6.568;2024-02-26T09:47:55;4.60;77.60
51801;DHT22;37855;53.204;6.568;2024-02-26T09:50:21;4.70;77.50
51801;DHT22;37855;53.204;6.568;2024-02-26T09:52:49;4.70;77.60
51801;DHT22;37855;53.204;6.568;2024-02-26T09:55:15;4.70;77.60
51801;DHT22;37855;53.204;6.568;2024-02-26T09:57:46;4.80;77.40
51801;DHT22;37855;53.204;6.568;2024-02-26T10:00:18;4.80;77.30
51801;DHT22;37855;53.204;6.568;2024-02-26T10:02:46;4.80;77.20
51801;DHT22;37855;53.204;6.568;2024-02-26T10:05:18;4.90;76.50
51801;DHT22;37855;53.204;6.568;2024-02-26T10:07:46;4.90;76.40
51801;DHT22;37855;53.204;6.568;2024-02-26T10:10:14;4.90;76.60
51801;DHT22;37855;53.204;6.568;2024-02-26T10:12:39;4.90;76.80
51801;DHT22;37855;53.204;6.568;2024-02-26T10:15:14;4.90;76.70
51801;DHT22;37855;53.204;6.568;2024-02-26T10:17:40;5.00;76.40
51801;DHT22;37855;53.204;6.568;2024-02-26T10:20:16;4.90;76.30
51801;DHT22;37855;53.204;6.568;2024-02-26T10:22:43;4.90;75.90
51801;DHT22;37855;53.204;6.568;2024-02-26T10:25:09;4.90;75.70
51801;DHT22;37855;53.204;6.568;2024-02-26T10:27:37;4.90;75.90
51801;DHT22;37855;53.204;6.568;2024-02-26T10:30:26;5.00;77.00
51801;DHT22;37855;53.204;6.568;2024-02-26T10:32:51;5.10;75.70
51801;DHT22;37855;53.204;6.568;2024-02-26T10:35:18;5.20;75.40
51801;DHT22;37855;53.204;6.568;2024-02-26T10:37:46;5.00;75.60
51801;DHT22;37855;53.204;6.568;2024-02-26T10:40:13;5.00;75.70
51801;DHT22;37855;53.204;6.568;2024-02-26T10:42:40;4.90;76.20
51801;DHT22;37855;53.204;6.568;2024-02-26T10:45:06;5.00;75.80
51801;DHT22;37855;53.204;6.568;2024-02-26T10:47:33;5.00;75.40
51801;DHT22;37855;53.204;6.568;2024-02-26T10:49:59;5.00;75.40
51801;DHT22;37855;53.204;6.568;2024-02-26T10:52:32;5.00;75.70
51801;DHT22;37855;53.204;6.568;2024-02-26T10:55:07;5.00;76.00
51801;DHT22;37855;53.204;6.568;2024-02-26T10:57:39;5.00;76.20
51801;DHT22;37855;53.204;6.568;2024-02-26T11:00:06;5.00;76.40
51801;DHT22;37855;53.204;6.568;2024-02-26T11:02:33;5.00;76.60
51801;DHT22;37855;53.204;6.568;2024-02-26T11:05:06;5.00;76.00
51801;DHT22;37855;53.204;6.568;2024-02-26T11:07:33;5.00;76.00
51801;DHT22;37855;53.204;6.568;2024-02-26T11:10:02;5.10;76.20
51801;DHT22;37855;53.204;6.568;2024-02-26T11:12:32;5.20;75.80
51801;DHT22;37855;53.204;6.568;2024-02-26T11:14:59;5.20;75.10
51801;DHT22;37855;53.204;6.568;2024-02-26T11:17:33;5.20;75.20
51801;DHT22;37855;53.204;6.568;2024-02-26T11:20:00;5.30;75.20
51801;DHT22;37855;53.204;6.568;2024-02-26T11:22:27;5.20;75.70
51801;DHT22;37855;53.204;6.568;2024-02-26T11:24:54;5.20;75.90
51801;DHT22;37855;53.204;6.568;2024-02-26T11:27:35;5.20;76.20
51801;DHT22;37855;53.204;6.568;2024-02-26T11:30:03;5.20;75.90
51801;DHT22;37855;53.204;6.568;2024-02-26T11:32:31;5.30;75.10
51801;DHT22;37855;53.204;6.568;2024-02-26T11:35:00;5.30;74.70
51801;DHT22;37855;53.204;6.568;2024-02-26T11:37:26;5.30;74.70
51801;DHT22;37855;53.204;6.568;2024-02-26T11:39:52;5.30;74.70
51801;DHT22;37855;53.204;6.568;2024-02-26T11:42:23;5.40;74.30
51801;DHT22;37855;53.204;6.568;2024-02-26T11:44:50;5.40;74.70
51801;DHT22;37855;53.204;6.568;2024-02-26T11:47:21;5.20;75.30
51801;DHT22;37855;53.204;6.568;2024-02-26T11:49:47;5.30;75.50
51801;DHT22;37855;53.204;6.568;2024-02-26T11:52:14;5.30;75.50
51801;DHT22;37855;53.204;6.568;2024-02-26T11:54:47;5.40;75.50
51801;DHT22;37855;53.204;6.568;2024-02-26T11:57:30;5.40;75.70
51801;DHT22;37855;53.204;6.568;2024-02-26T12:00:13;5.40;75.50
51801;DHT22;37855;53.204;6.568;2024-02-26T12:02:52;5.50;74.30
51801;DHT22;37855;53.204;6.568;2024-02-26T12:05:25;5.50;74.10
51801;DHT22;37855;53.204;6.568;2024-02-26T12:08:04;5.50;74.20
51801;DHT22;37855;53.204;6.568;2024-02-26T12:10:35;5.50;74.20
51801;DHT22;37855;53.204;6.568;2024-02-26T12:13:15;5.50;74.60
51801;DHT22;37855;53.204;6.568;2024-02-26T12:15:45;5.50;75.00
51801;DHT22;37855;53.204;6.568;2024-02-26T12:18:16;5.60;74.90
51801;DHT22;37855;53.204;6.568;2024-02-26T12:20:42;5.60;74.80
51801;DHT22;37855;53.204;6.568;2024-02-26T12:23:18;5.50;74.90
51801;DHT22;37855;53.204;6.568;2024-02-26T12:26:10;5.50;75.50
51801;DHT22;37855;53.204;6.568;2024-02-26T12:29:10;5.40;75.90
51801;DHT22;37855;53.204;6.568;2024-02-26T12:34:40;5.50;75.10
51801;DHT22;37855;53.204;6.568;2024-02-26T12:37:30;5.40;74.60
51801;DHT22;37855;53.204;6.568;2024-02-26T12:39:55;5.40;74.40
51801;DHT22;37855;53.204;6.568;2024-02-26T12:42:39;5.40;74.80
51801;DHT22;37855;53.204;6.568;2024-02-26T12:45:12;5.30;75.10
51801;DHT22;37855;53.204;6.568;2024-02-26T12:47:50;5.40;75.00
51801;DHT22;37855;53.204;6.568;2024-02-26T12:50:46;5.40;75.30
51801;DHT22;37855;53.204;6.568;2024-02-26T12:53:26;5.40;75.60
51801;DHT22;37855;53.204;6.568;2024-02-26T12:55:54;5.30;75.80
51801;DHT22;37855;53.204;6.568;2024-02-26T12:58:21;5.30;75.80
51801;DHT22;37855;53.204;6.568;2024-02-26T13:00:51;5.20;75.70
51801;DHT22;37855;53.204;6.568;2024-02-26T13:03:17;5.10;76.10
51801;DHT22;37855;53.204;6.568;2024-02-26T13:05:43;5.20;75.70
51801;DHT22;37855;53.204;6.568;2024-02-26T13:08:09;5.20;75.60
51801;DHT22;37855;53.204;6.568;2024-02-26T13:10:34;5.10;75.40
51801;DHT22;37855;53.204;6.568;2024-02-26T13:13:01;5.10;75.30
51801;DHT22;37855;53.204;6.568;2024-02-26T13:15:27;5.10;76.00
51801;DHT22;37855;53.204;6.568;2024-02-26T13:17:53;5.10;76.30
51801;DHT22;37855;53.204;6.568;2024-02-26T13:20:30;5.10;76.20
51801;DHT22;37855;53.204;6.568;2024-02-26T13:23:12;5.10;76.40
51801;DHT22;37855;53.204;6.568;2024-02-26T13:25:41;5.10;76.60
51801;DHT22;37855;53.204;6.568;2024-02-26T13:28:15;5.00;76.80
51801;DHT22;37855;53.204;6.568;2024-02-26T13:30:49;5.10;76.20
51801;DHT22;37855;53.204;6.568;2024-02-26T13:33:15;5.10;76.00
51801;DHT22;37855;53.204;6.568;2024-02-26T13:35:41;5.20;76.10
51801;DHT22;37855;53.204;6.568;2024-02-26T13:38:07;5.20;75.40
51801;DHT22;37855;53.204;6.568;2024-02-26T13:40:36;5.30;75.00
51801;DHT22;37855;53.204;6.568;2024-02-26T13:43:01;5.20;75.10
51801;DHT22;37855;53.204;6.568;2024-02-26T13:45:27;5.20;74.90
51801;DHT22;37855;53.204;6.568;2024-02-26T13:47:53;5.50;77.00
51801;DHT22;37855;53.204;6.568;2024-02-26T13:50:18;5.80;74.10
51801;DHT22;37855;53.204;6.568;2024-02-26T13:52:47;5.70;73.10
51801;DHT22;37855;53.204;6.568;2024-02-26T13:55:18;5.50;74.00
51801;DHT22;37855;53.204;6.568;2024-02-26T13:57:45;5.40;74.30
51801;DHT22;37855;53.204;6.568;2024-02-26T14:00:11;5.30;74.70
51801;DHT22;37855;53.204;6.568;2024-02-26T14:02:36;5.40;74.40
51801;DHT22;37855;53.204;6.568;2024-02-26T14:05:02;5.30;74.60
51801;DHT22;37855;53.204;6.568;2024-02-26T14:07:31;5.20;74.70
51801;DHT22;37855;53.204;6.568;2024-02-26T14:09:59;5.20;74.70
51801;DHT22;37855;53.204;6.568;2024-02-26T14:12:25;5.20;75.00
51801;DHT22;37855;53.204;6.568;2024-02-26T14:14:50;5.10;75.20
51801;DHT22;37855;53.204;6.568;2024-02-26T14:17:18;5.20;75.50
51801;DHT22;37855;53.204;6.568;2024-02-26T14:19:44;5.10;75.70
51801;DHT22;37855;53.204;6.568;2024-02-26T14:22:13;5.10;76.10
51801;DHT22;37855;53.204;6.568;2024-02-26T14:24:40;5.10;76.30
51801;DHT22;37855;53.204;6.568;2024-02-26T14:27:08;5.10;76.30
51801;DHT22;37855;53.204;6.568;2024-02-26T14:29:35;5.20;76.60
51801;DHT22;37855;53.204;6.568;2024-02-26T14:32:09;5.20;76.70
51801;DHT22;37855;53.204;6.568;2024-02-26T14:34:34;5.20;76.50
51801;DHT22;37855;53.204;6.568;2024-02-26T14:37:00;5.20;76.30
51801;DHT22;37855;53.204;6.568;2024-02-26T14:39:29;5.20;76.10
51801;DHT22;37855;53.204;6.568;2024-02-26T14:41:55;5.20;76.30
51801;DHT22;37855;53.204;6.568;2024-02-26T14:44:21;5.10;76.50
51801;DHT22;37855;53.204;6.568;2024-02-26T14:46:46;5.10;76.70
51801;DHT22;37855;53.204;6.568;2024-02-26T14:49:12;5.20;76.60
51801;DHT22;37855;53.204;6.568;2024-02-26T14:51:38;5.20;76.40
51801;DHT22;37855;53.204;6.568;2024-02-26T14:54:04;5.10;76.10
51801;DHT22;37855;53.204;6.568;2024-02-26T14:56:30;5.10;75.90
51801;DHT22;37855;53.204;6.568;2024-02-26T14:58:55;5.10;75.30
51801;DHT22;37855;53.204;6.568;2024-02-26T15:01:21;5.10;75.60
51801;DHT22;37855;53.204;6.568;2024-02-26T15:03:47;5.10;75.50
51801;DHT22;37855;53.204;6.568;2024-02-26T15:06:13;5.00;75.80
51801;DHT22;37855;53.204;6.568;2024-02-26T15:08:38;5.00;76.40
51801;DHT22;37855;53.204;6.568;2024-02-26T15:11:04;5.00;76.30
51801;DHT22;37855;53.204;6.568;2024-02-26T15:13:30;5.10;76.50
51801;DHT22;37855;53.204;6.568;2024-02-26T15:15:56;5.10;76.50
51801;DHT22;37855;53.204;6.568;2024-02-26T15:18:21;5.10;76.20
51801;DHT22;37855;53.204;6.568;2024-02-26T15:20:47;5.10;76.20
51801;DHT22;37855;53.204;6.568;2024-02-26T15:23:13;5.10;76.20
51801;DHT22;37855;53.204;6.568;2024-02-26T15:25:39;5.10;76.20
51801;DHT22;37855;53.204;6.568;2024-02-26T15:28:07;5.00;76.30
51801;DHT22;37855;53.204;6.568;2024-02-26T15:30:32;5.00;76.10
51801;DHT22;37855;53.204;6.568;2024-02-26T15:32:59;5.00;76.10
51801;DHT22;37855;53.204;6.568;2024-02-26T15:35:25;5.10;75.80
51801;DHT22;37855;53.204;6.568;2024-02-26T15:37:51;5.10;75.70
51801;DHT22;37855;53.204;6.568;2024-02-26T15:40:17;5.10;75.90
51801;DHT22;37855;53.204;6.568;2024-02-26T15:42:43;5.00;75.90
51801;DHT22;37855;53.204;6.568;2024-02-26T15:45:08;5.00;75.50
51801;DHT22;37855;53.204;6.568;2024-02-26T15:47:34;5.00;75.70
51801;DHT22;37855;53.204;6.568;2024-02-26T15:50:01;5.00;75.50